sensor_id;sensor_type;location;lat;lon;timestamp;temperature;humidity
7155;DHT22;3619;53.784;10.440;2023-07-22T00:00:46;13.50;99.90
7155;DHT22;3619;53.784;10.440;2023-07-22T00:03:13;13.50;99.90
7155;DHT22;3619;53.784;10.440;2023-07-22T00:05:40;13.40;99.90
7155;DHT22;3619;53.784;10.440;2023-07-22T00:08:09;13.40;99.90
7155;DHT22;3619;53.784;10.440;2023-07-22T00:10:40;13.40;99.90
7155;DHT22;3619;53.784;10.440;2023-07-22T00:13:07;13.30;99.90
7155;DHT22;3619;53.784;10.440;2023-07-22T00:15:35;13.30;99.90
7155;DHT22;3619;53.784;10.440;2023-07-22T00:18:27;13.30;99.90
7155;DHT22;3619;53.784;10.440;2023-07-22T00:20:54;13.20;99.90
7155;DHT22;3619;53.784;10.440;2023-07-22T00:23:21;13.30;99.90
7155;DHT22;3619;53.784;10.440;2023-07-22T00:25:48;13.20;99.90
7155;DHT22;3619;53.784;10.440;2023-07-22T00:28:15;13.20;99.90
7155;DHT22;3619;53.784;10.440;2023-07-22T00:30:43;13.20;99.90
7155;DHT22;3619;53.784;10.440;2023-07-22T00:33:10;13.20;99.90
7155;DHT22;3619;53.784;10.440;2023-07-22T00:35:38;13.20;99.90
7155;DHT22;3619;53.784;10.440;2023-07-22T00:38:04;13.20;99.90
7155;DHT22;3619;53.784;10.440;2023-07-22T00:40:31;13.10;99.90
7155;DHT22;3619;53.784;10.440;2023-07-22T00:43:00;13.10;99.90
7155;DHT22;3619;53.784;10.440;2023-07-22T00:45:26;13.10;99.90
7155;DHT22;3619;53.784;10.440;2023-07-22T00:47:55;13.10;99.90
7155;DHT22;3619;53.784;10.440;2023-07-22T00:50:22;13.10;99.90
7155;DHT22;3619;53.784;10.440;2023-07-22T00:52:50;13.10;99.90
7155;DHT22;3619;53.784;10.440;2023-07-22T00:55:17;13.10;99.90
7155;DHT22;3619;53.784;10.440;2023-07-22T00:57:44;13.10;99.90
7155;DHT22;3619;53.784;10.440;2023-07-22T01:00:12;13.10;99.90
7155;DHT22;3619;53.784;10.440;2023-07-22T01:02:40;13.10;99.90
7155;DHT22;3619;53.784;10.440;2023-07-22T01:05:09;13.10;99.90
7155;DHT22;3619;53.784;10.440;2023-07-22T01:07:37;13.10;99.90
7155;DHT22;3619;53.784;10.440;2023-07-22T01:10:05;13.00;99.90
7155;DHT22;3619;53.784;10.440;2023-07-22T01:12:33;13.10;99.90
7155;DHT22;3619;53.784;10.440;2023-07-22T01:15:04;13.10;99.90
7155;DHT22;3619;53.784;10.440;2023-07-22T01:17:33;13.10;99.90
7155;DHT22;3619;53.784;10.440;2023-07-22T01:20:01;13.10;99.90
7155;DHT22;3619;53.784;10.440;2023-07-22T01:22:31;13.10;99.90
7155;DHT22;3619;53.784;10.440;2023-07-22T01:25:00;13.10;99.90
7155;DHT22;3619;53.784;10.440;2023-07-22T01:27:27;13.10;99.90
7155;DHT22;3619;53.784;10.440;2023-07-22T01:29:54;13.10;99.90
7155;DHT22;3619;53.784;10.440;2023-07-22T01:32:21;13.10;99.90
7155;DHT22;3619;53.784;10.440;2023-07-22T01:34:47;13.10;99.90
7155;DHT22;3619;53.784;10.440;2023-07-22T01:37:14;13.00;99.90
7155;DHT22;3619;53.784;10.440;2023-07-22T01:39:41;13.00;99.90
7155;DHT22;3619;53.784;10.440;2023-07-22T01:42:10;13.00;99.90
7155;DHT22;3619;53.784;10.440;2023-07-22T01:44:39;13.00;99.90
7155;DHT22;3619;53.784;10.440;2023-07-22T01:47:06;13.00;99.90
7155;DHT22;3619;53.784;10.440;2023-07-22T01:49:33;12.90;99.90
7155;DHT22;3619;53.784;10.440;2023-07-22T01:52:00;12.90;99.90
7155;DHT22;3619;53.784;10.440;2023-07-22T01:54:29;12.90;99.90
7155;DHT22;3619;53.784;10.440;2023-07-22T01:56:56;12.90;99.90
7155;DHT22;3619;53.784;10.440;2023-07-22T01:59:24;13.00;99.90
7155;DHT22;3619;53.784;10.440;2023-07-22T02:01:51;13.00;99.90
7155;DHT22;3619;53.784;10.440;2023-07-22T02:04:18;13.00;99.90
7155;DHT22;3619;53.784;10.440;2023-07-22T02:06:46;12.90;99.90
7155;DHT22;3619;53.784;10.440;2023-07-22T02:09:13;12.90;99.90
7155;DHT22;3619;53.784;10.440;2023-07-22T02:11:40;12.80;99.90
7155;DHT22;3619;53.784;10.440;2023-07-22T02:14:07;12.80;99.90
7155;DHT22;3619;53.784;10.440;2023-07-22T02:16:35;12.80;99.90
7155;DHT22;3619;53.784;10.440;2023-07-22T02:19:03;12.80;99.90
7155;DHT22;3619;53.784;10.440;2023-07-22T02:21:30;12.80;99.90
7155;DHT22;3619;53.784;10.440;2023-07-22T02:23:57;12.70;99.90
7155;DHT22;3619;53.784;10.440;2023-07-22T02:26:24;12.70;99.90
7155;DHT22;3619;53.784;10.440;2023-07-22T02:28:50;12.80;99.90
7155;DHT22;3619;53.784;10.440;2023-07-22T02:31:17;12.80;99.90
7155;DHT22;3619;53.784;10.440;2023-07-22T02:33:45;12.70;99.90
7155;DHT22;3619;53.784;10.440;2023-07-22T02:36:13;12.80;99.90
7155;DHT22;3619;53.784;10.440;2023-07-22T02:38:40;12.80;99.90
7155;DHT22;3619;53.784;10.440;2023-07-22T02:41:08;12.80;99.90
7155;DHT22;3619;53.784;10.440;2023-07-22T02:43:35;12.70;99.90
7155;DHT22;3619;53.784;10.440;2023-07-22T02:46:04;12.70;99.90
7155;DHT22;3619;53.784;10.440;2023-07-22T02:48:33;12.70;99.90
7155;DHT22;3619;53.784;10.440;2023-07-22T02:51:05;12.70;99.90
7155;DHT22;3619;53.784;10.440;2023-07-22T02:53:32;12.70;99.90
7155;DHT22;3619;53.784;10.440;2023-07-22T02:55:59;12.70;99.90
7155;DHT22;3619;53.784;10.440;2023-07-22T02:58:26;12.60;99.90
7155;DHT22;3619;53.784;10.440;2023-07-22T03:00:53;12.60;99.90
7155;DHT22;3619;53.784;10.440;2023-07-22T03:03:20;12.60;99.90
7155;DHT22;3619;53.784;10.440;2023-07-22T03:05:47;12.60;99.90
7155;DHT22;3619;53.784;10.440;2023-07-22T03:08:16;12.60;99.90
7155;DHT22;3619;53.784;10.440;2023-07-22T03:10:44;12.50;99.90
7155;DHT22;3619;53.784;10.440;2023-07-22T03:13:14;12.50;99.90
7155;DHT22;3619;53.784;10.440;2023-07-22T03:15:41;12.50;99.90
7155;DHT22;3619;53.784;10.440;2023-07-22T03:18:08;12.50;99.90
7155;DHT22;3619;53.784;10.440;2023-07-22T03:20:35;12.50;99.90
7155;DHT22;3619;53.784;10.440;2023-07-22T03:23:04;12.40;99.90
7155;DHT22;3619;53.784;10.440;2023-07-22T03:25:33;12.40;99.90
7155;DHT22;3619;53.784;10.440;2023-07-22T03:28:03;12.40;99.90
7155;DHT22;3619;53.784;10.440;2023-07-22T03:30:30;12.40;99.90
7155;DHT22;3619;53.784;10.440;2023-07-22T03:32:57;12.40;99.90
7155;DHT22;3619;53.784;10.440;2023-07-22T03:35:24;12.40;99.90
7155;DHT22;3619;53.784;10.440;2023-07-22T03:37:51;12.30;99.90
7155;DHT22;3619;53.784;10.440;2023-07-22T03:40:17;12.30;99.90
7155;DHT22;3619;53.784;10.440;2023-07-22T03:42:47;12.30;99.90
7155;DHT22;3619;53.784;10.440;2023-07-22T03:45:14;12.30;99.90
7155;DHT22;3619;53.784;10.440;2023-07-22T03:47:44;12.30;99.90
7155;DHT22;3619;53.784;10.440;2023-07-22T03:50:11;12.30;99.90
7155;DHT22;3619;53.784;10.440;2023-07-22T03:52:38;12.30;99.90
7155;DHT22;3619;53.784;10.440;2023-07-22T03:55:05;12.30;99.90
7155;DHT22;3619;53.784;10.440;2023-07-22T03:57:32;12.30;99.90
7155;DHT22;3619;53.784;10.440;2023-07-22T04:00:00;12.20;99.90
7155;DHT22;3619;53.784;10.440;2023-07-22T04:02:26;12.20;99.90
7155;DHT22;3619;53.784;10.440;2023-07-22T04:04:54;12.20;99.90
7155;DHT22;3619;53.784;10.440;2023-07-22T04:07:21;12.20;99.90
7155;DHT22;3619;53.784;10.440;2023-07-22T04:09:48;12.30;99.90
7155;DHT22;3619;53.784;10.440;2023-07-22T04:12:15;12.30;99.90
7155;DHT22;3619;53.784;10.440;2023-07-22T04:14:42;12.30;99.90
7155;DHT22;3619;53.784;10.440;2023-07-22T04:17:10;12.40;99.90
7155;DHT22;3619;53.784;10.440;2023-07-22T04:19:37;12.40;99.90
7155;DHT22;3619;53.784;10.440;2023-07-22T04:22:04;12.50;99.90
7155;DHT22;3619;53.784;10.440;2023-07-22T04:24:32;12.50;99.90
7155;DHT22;3619;53.784;10.440;2023-07-22T04:27:00;12.50;99.90
7155;DHT22;3619;53.784;10.440;2023-07-22T04:29:27;12.60;99.90
7155;DHT22;3619;53.784;10.440;2023-07-22T04:31:58;12.60;99.90
7155;DHT22;3619;53.784;10.440;2023-07-22T04:34:28;12.60;99.90
7155;DHT22;3619;53.784;10.440;2023-07-22T04:36:55;12.70;99.90
7155;DHT22;3619;53.784;10.440;2023-07-22T04:39:23;12.60;99.90
7155;DHT22;3619;53.784;10.440;2023-07-22T04:41:50;12.60;99.90
7155;DHT22;3619;53.784;10.440;2023-07-22T04:44:17;12.50;99.90
7155;DHT22;3619;53.784;10.440;2023-07-22T04:46:44;12.50;99.90
7155;DHT22;3619;53.784;10.440;2023-07-22T04:49:11;12.50;99.90
7155;DHT22;3619;53.784;10.440;2023-07-22T04:51:39;12.50;99.90
7155;DHT22;3619;53.784;10.440;2023-07-22T04:54:06;12.50;99.90
7155;DHT22;3619;53.784;10.440;2023-07-22T04:56:33;12.50;99.90
7155;DHT22;3619;53.784;10.440;2023-07-22T04:59:00;12.50;99.90
7155;DHT22;3619;53.784;10.440;2023-07-22T05:01:27;12.40;99.90
7155;DHT22;3619;53.784;10.440;2023-07-22T05:03:58;12.40;99.90
7155;DHT22;3619;53.784;10.440;2023-07-22T05:06:25;12.40;99.90
7155;DHT22;3619;53.784;10.440;2023-07-22T05:08:53;12.50;99.90
7155;DHT22;3619;53.784;10.440;2023-07-22T05:11:20;12.50;99.90
7155;DHT22;3619;53.784;10.440;2023-07-22T05:13:49;12.50;99.90
7155;DHT22;3619;53.784;10.440;2023-07-22T05:16:16;12.60;99.90
7155;DHT22;3619;53.784;10.440;2023-07-22T05:18:44;12.60;99.90
7155;DHT22;3619;53.784;10.440;2023-07-22T05:21:10;12.70;99.90
7155;DHT22;3619;53.784;10.440;2023-07-22T05:23:38;12.70;99.90
7155;DHT22;3619;53.784;10.440;2023-07-22T05:26:06;12.70;99.90
7155;DHT22;3619;53.784;10.440;2023-07-22T05:28:33;12.80;99.90
7155;DHT22;3619;53.784;10.440;2023-07-22T05:31:00;12.90;99.90
7155;DHT22;3619;53.784;10.440;2023-07-22T05:33:27;12.90;99.90
7155;DHT22;3619;53.784;10.440;2023-07-22T05:35:54;12.90;99.90
7155;DHT22;3619;53.784;10.440;2023-07-22T05:38:21;13.00;99.90
7155;DHT22;3619;53.784;10.440;2023-07-22T05:40:48;13.10;99.90
7155;DHT22;3619;53.784;10.440;2023-07-22T05:43:18;13.20;99.90
7155;DHT22;3619;53.784;10.440;2023-07-22T05:45:45;13.20;99.90
7155;DHT22;3619;53.784;10.440;2023-07-22T05:48:12;13.20;99.90
7155;DHT22;3619;53.784;10.440;2023-07-22T05:50:38;13.30;99.90
7155;DHT22;3619;53.784;10.440;2023-07-22T05:53:06;13.50;99.90
7155;DHT22;3619;53.784;10.440;2023-07-22T05:55:33;13.50;99.90
7155;DHT22;3619;53.784;10.440;2023-07-22T05:58:02;13.50;99.90
7155;DHT22;3619;53.784;10.440;2023-07-22T06:00:32;13.50;99.90
7155;DHT22;3619;53.784;10.440;2023-07-22T06:02:59;13.50;99.90
7155;DHT22;3619;53.784;10.440;2023-07-22T06:05:26;13.60;99.90
7155;DHT22;3619;53.784;10.440;2023-07-22T06:07:52;13.70;99.90
7155;DHT22;3619;53.784;10.440;2023-07-22T06:10:20;13.70;99.90
7155;DHT22;3619;53.784;10.440;2023-07-22T06:12:47;13.80;99.90
7155;DHT22;3619;53.784;10.440;2023-07-22T06:15:13;13.90;99.90
7155;DHT22;3619;53.784;10.440;2023-07-22T06:17:41;14.00;99.90
7155;DHT22;3619;53.784;10.440;2023-07-22T06:20:09;14.20;99.90
7155;DHT22;3619;53.784;10.440;2023-07-22T06:22:37;14.20;99.90
7155;DHT22;3619;53.784;10.440;2023-07-22T06:25:04;14.40;99.90
7155;DHT22;3619;53.784;10.440;2023-07-22T06:27:31;14.50;99.90
7155;DHT22;3619;53.784;10.440;2023-07-22T06:29:58;14.50;99.90
7155;DHT22;3619;53.784;10.440;2023-07-22T06:32:25;14.50;99.90
7155;DHT22;3619;53.784;10.440;2023-07-22T06:34:56;14.70;99.90
7155;DHT22;3619;53.784;10.440;2023-07-22T06:37:23;15.00;99.90
7155;DHT22;3619;53.784;10.440;2023-07-22T06:39:53;15.20;99.90
7155;DHT22;3619;53.784;10.440;2023-07-22T06:42:20;15.30;99.90
7155;DHT22;3619;53.784;10.440;2023-07-22T06:44:47;15.30;99.90
7155;DHT22;3619;53.784;10.440;2023-07-22T06:47:14;15.20;99.90
7155;DHT22;3619;53.784;10.440;2023-07-22T06:49:41;15.20;99.90
7155;DHT22;3619;53.784;10.440;2023-07-22T06:52:15;15.20;99.90
7155;DHT22;3619;53.784;10.440;2023-07-22T06:54:42;15.20;99.90
7155;DHT22;3619;53.784;10.440;2023-07-22T06:57:15;15.10;99.90
7155;DHT22;3619;53.784;10.440;2023-07-22T06:59:42;15.20;99.90
7155;DHT22;3619;53.784;10.440;2023-07-22T07:02:08;15.40;99.90
7155;DHT22;3619;53.784;10.440;2023-07-22T07:04:35;15.40;99.90
7155;DHT22;3619;53.784;10.440;2023-07-22T07:07:05;15.50;99.90
7155;DHT22;3619;53.784;10.440;2023-07-22T07:09:42;15.50;99.90
7155;DHT22;3619;53.784;10.440;2023-07-22T07:12:09;15.70;99.90
7155;DHT22;3619;53.784;10.440;2023-07-22T07:14:36;15.90;99.90
7155;DHT22;3619;53.784;10.440;2023-07-22T07:17:06;16.00;99.90
7155;DHT22;3619;53.784;10.440;2023-07-22T07:19:33;16.20;99.90
7155;DHT22;3619;53.784;10.440;2023-07-22T07:22:00;16.20;99.90
7155;DHT22;3619;53.784;10.440;2023-07-22T07:24:29;16.20;99.90
7155;DHT22;3619;53.784;10.440;2023-07-22T07:26:58;16.20;99.90
7155;DHT22;3619;53.784;10.440;2023-07-22T07:29:25;16.20;99.90
7155;DHT22;3619;53.784;10.440;2023-07-22T07:31:53;16.40;99.90
7155;DHT22;3619;53.784;10.440;2023-07-22T07:34:19;16.50;99.90
7155;DHT22;3619;53.784;10.440;2023-07-22T07:36:46;16.50;99.90
7155;DHT22;3619;53.784;10.440;2023-07-22T07:39:14;16.50;99.90
7155;DHT22;3619;53.784;10.440;2023-07-22T07:41:40;16.60;99.90
7155;DHT22;3619;53.784;10.440;2023-07-22T07:44:09;16.70;99.90
7155;DHT22;3619;53.784;10.440;2023-07-22T07:46:38;16.70;99.90
7155;DHT22;3619;53.784;10.440;2023-07-22T07:49:05;16.70;99.90
7155;DHT22;3619;53.784;10.440;2023-07-22T07:51:33;16.80;99.90
7155;DHT22;3619;53.784;10.440;2023-07-22T07:54:00;16.60;99.90
7155;DHT22;3619;53.784;10.440;2023-07-22T07:56:29;16.50;99.90
7155;DHT22;3619;53.784;10.440;2023-07-22T07:58:56;16.40;99.90
7155;DHT22;3619;53.784;10.440;2023-07-22T08:01:24;16.40;99.90
7155;DHT22;3619;53.784;10.440;2023-07-22T08:03:51;16.60;99.90
7155;DHT22;3619;53.784;10.440;2023-07-22T08:06:18;16.80;99.90
7155;DHT22;3619;53.784;10.440;2023-07-22T08:08:45;17.10;99.90
7155;DHT22;3619;53.784;10.440;2023-07-22T08:11:13;17.20;99.90
7155;DHT22;3619;53.784;10.440;2023-07-22T08:13:41;17.20;99.90
7155;DHT22;3619;53.784;10.440;2023-07-22T08:16:10;17.20;99.90
7155;DHT22;3619;53.784;10.440;2023-07-22T08:18:38;17.20;99.90
7155;DHT22;3619;53.784;10.440;2023-07-22T08:21:06;17.20;99.90
7155;DHT22;3619;53.784;10.440;2023-07-22T08:23:33;16.90;99.90
7155;DHT22;3619;53.784;10.440;2023-07-22T08:26:01;16.60;99.90
7155;DHT22;3619;53.784;10.440;2023-07-22T08:28:30;16.50;99.90
7155;DHT22;3619;53.784;10.440;2023-07-22T08:30:57;16.80;99.90
7155;DHT22;3619;53.784;10.440;2023-07-22T08:33:24;17.30;99.90
7155;DHT22;3619;53.784;10.440;2023-07-22T08:35:52;17.40;99.90
7155;DHT22;3619;53.784;10.440;2023-07-22T08:38:19;17.30;99.90
7155;DHT22;3619;53.784;10.440;2023-07-22T08:40:49;17.30;99.90
7155;DHT22;3619;53.784;10.440;2023-07-22T08:43:22;17.20;99.90
7155;DHT22;3619;53.784;10.440;2023-07-22T08:45:51;17.10;99.90
7155;DHT22;3619;53.784;10.440;2023-07-22T08:48:26;17.30;99.90
7155;DHT22;3619;53.784;10.440;2023-07-22T08:50:55;17.60;99.90
7155;DHT22;3619;53.784;10.440;2023-07-22T08:53:26;17.90;99.90
7155;DHT22;3619;53.784;10.440;2023-07-22T08:55:53;18.20;99.90
7155;DHT22;3619;53.784;10.440;2023-07-22T08:58:23;18.10;99.90
7155;DHT22;3619;53.784;10.440;2023-07-22T09:00:51;18.40;99.90
7155;DHT22;3619;53.784;10.440;2023-07-22T09:03:19;18.80;99.90
7155;DHT22;3619;53.784;10.440;2023-07-22T09:05:46;18.80;99.90
7155;DHT22;3619;53.784;10.440;2023-07-22T09:08:16;18.50;99.90
7155;DHT22;3619;53.784;10.440;2023-07-22T09:10:44;18.50;99.90
7155;DHT22;3619;53.784;10.440;2023-07-22T09:13:12;18.60;99.90
7155;DHT22;3619;53.784;10.440;2023-07-22T09:15:40;18.20;99.90
7155;DHT22;3619;53.784;10.440;2023-07-22T09:18:07;18.10;99.90
7155;DHT22;3619;53.784;10.440;2023-07-22T09:20:34;17.80;99.90
7155;DHT22;3619;53.784;10.440;2023-07-22T09:23:02;17.70;99.90
7155;DHT22;3619;53.784;10.440;2023-07-22T09:25:30;18.00;99.90
7155;DHT22;3619;53.784;10.440;2023-07-22T09:27:59;18.10;99.90
7155;DHT22;3619;53.784;10.440;2023-07-22T09:30:26;18.10;99.90
7155;DHT22;3619;53.784;10.440;2023-07-22T09:32:54;18.00;99.90
7155;DHT22;3619;53.784;10.440;2023-07-22T09:35:22;17.90;99.90
7155;DHT22;3619;53.784;10.440;2023-07-22T09:37:49;17.80;99.90
7155;DHT22;3619;53.784;10.440;2023-07-22T09:40:18;18.10;99.90
7155;DHT22;3619;53.784;10.440;2023-07-22T09:42:48;18.20;99.90
7155;DHT22;3619;53.784;10.440;2023-07-22T09:45:16;18.50;99.90
7155;DHT22;3619;53.784;10.440;2023-07-22T09:47:45;18.30;99.90
7155;DHT22;3619;53.784;10.440;2023-07-22T09:50:14;18.10;99.90
7155;DHT22;3619;53.784;10.440;2023-07-22T09:52:44;18.30;99.90
7155;DHT22;3619;53.784;10.440;2023-07-22T09:55:11;18.70;99.90
7155;DHT22;3619;53.784;10.440;2023-07-22T09:57:43;18.70;99.90
7155;DHT22;3619;53.784;10.440;2023-07-22T10:00:13;18.30;99.90
7155;DHT22;3619;53.784;10.440;2023-07-22T10:02:42;18.40;99.90
7155;DHT22;3619;53.784;10.440;2023-07-22T10:05:12;18.40;99.90
7155;DHT22;3619;53.784;10.440;2023-07-22T10:07:44;18.60;99.90
7155;DHT22;3619;53.784;10.440;2023-07-22T10:10:12;18.60;99.90
7155;DHT22;3619;53.784;10.440;2023-07-22T10:12:40;18.50;99.90
7155;DHT22;3619;53.784;10.440;2023-07-22T10:15:08;18.50;99.90
7155;DHT22;3619;53.784;10.440;2023-07-22T10:17:37;18.80;99.90
7155;DHT22;3619;53.784;10.440;2023-07-22T10:20:05;19.20;99.90
7155;DHT22;3619;53.784;10.440;2023-07-22T10:22:35;19.50;99.90
7155;DHT22;3619;53.784;10.440;2023-07-22T10:25:05;19.30;99.90
7155;DHT22;3619;53.784;10.440;2023-07-22T10:27:34;19.20;99.90
7155;DHT22;3619;53.784;10.440;2023-07-22T10:30:02;19.20;99.90
7155;DHT22;3619;53.784;10.440;2023-07-22T10:32:33;19.40;99.90
7155;DHT22;3619;53.784;10.440;2023-07-22T10:35:03;19.80;99.90
7155;DHT22;3619;53.784;10.440;2023-07-22T10:37:30;19.70;99.90
7155;DHT22;3619;53.784;10.440;2023-07-22T10:40:02;19.60;99.90
7155;DHT22;3619;53.784;10.440;2023-07-22T10:42:42;19.80;99.90
7155;DHT22;3619;53.784;10.440;2023-07-22T10:45:24;19.90;99.90
7155;DHT22;3619;53.784;10.440;2023-07-22T10:48:00;19.60;99.90
7155;DHT22;3619;53.784;10.440;2023-07-22T10:50:39;19.90;99.90
7155;DHT22;3619;53.784;10.440;2023-07-22T10:53:08;20.10;99.90
7155;DHT22;3619;53.784;10.440;2023-07-22T10:56:06;20.40;99.90
7155;DHT22;3619;53.784;10.440;2023-07-22T10:58:54;20.20;99.90
7155;DHT22;3619;53.784;10.440;2023-07-22T11:01:22;19.90;99.90
7155;DHT22;3619;53.784;10.440;2023-07-22T11:04:07;19.30;99.90
7155;DHT22;3619;53.784;10.440;2023-07-22T11:06:39;19.60;99.90
7155;DHT22;3619;53.784;10.440;2023-07-22T11:09:06;19.70;99.90
7155;DHT22;3619;53.784;10.440;2023-07-22T11:11:37;19.90;99.90
7155;DHT22;3619;53.784;10.440;2023-07-22T11:14:15;20.10;99.90
7155;DHT22;3619;53.784;10.440;2023-07-22T11:16:45;20.10;99.90
7155;DHT22;3619;53.784;10.440;2023-07-22T11:19:15;20.00;99.90
7155;DHT22;3619;53.784;10.440;2023-07-22T11:21:44;19.70;99.90
7155;DHT22;3619;53.784;10.440;2023-07-22T11:24:11;19.90;99.90
7155;DHT22;3619;53.784;10.440;2023-07-22T11:26:40;20.50;99.90
7155;DHT22;3619;53.784;10.440;2023-07-22T11:29:08;21.00;99.90
7155;DHT22;3619;53.784;10.440;2023-07-22T11:31:37;20.70;99.90
7155;DHT22;3619;53.784;10.440;2023-07-22T11:34:08;20.60;99.90
7155;DHT22;3619;53.784;10.440;2023-07-22T11:36:35;21.10;99.90
7155;DHT22;3619;53.784;10.440;2023-07-22T11:39:06;21.40;99.90
7155;DHT22;3619;53.784;10.440;2023-07-22T11:41:35;21.20;99.90
7155;DHT22;3619;53.784;10.440;2023-07-22T11:44:03;21.00;99.90
7155;DHT22;3619;53.784;10.440;2023-07-22T11:46:34;20.90;96.60
7155;DHT22;3619;53.784;10.440;2023-07-22T11:49:02;20.50;82.90
7155;DHT22;3619;53.784;10.440;2023-07-22T11:51:29;20.30;90.50
7155;DHT22;3619;53.784;10.440;2023-07-22T11:53:57;20.30;97.10
7155;DHT22;3619;53.784;10.440;2023-07-22T11:56:26;20.40;99.10
7155;DHT22;3619;53.784;10.440;2023-07-22T11:58:55;20.60;99.90
7155;DHT22;3619;53.784;10.440;2023-07-22T12:01:22;20.60;94.70
7155;DHT22;3619;53.784;10.440;2023-07-22T12:03:56;20.60;94.30
7155;DHT22;3619;53.784;10.440;2023-07-22T12:06:25;20.80;99.10
7155;DHT22;3619;53.784;10.440;2023-07-22T12:08:56;21.00;98.30
7155;DHT22;3619;53.784;10.440;2023-07-22T12:11:25;21.10;95.20
7155;DHT22;3619;53.784;10.440;2023-07-22T12:14:06;21.00;99.60
7155;DHT22;3619;53.784;10.440;2023-07-22T12:16:34;21.00;95.10
7155;DHT22;3619;53.784;10.440;2023-07-22T12:19:03;20.80;98.70
7155;DHT22;3619;53.784;10.440;2023-07-22T12:21:30;20.50;90.00
7155;DHT22;3619;53.784;10.440;2023-07-22T12:23:58;20.40;95.30
7155;DHT22;3619;53.784;10.440;2023-07-22T12:26:26;20.40;99.90
7155;DHT22;3619;53.784;10.440;2023-07-22T12:28:53;20.30;99.90
7155;DHT22;3619;53.784;10.440;2023-07-22T12:31:20;20.30;99.90
7155;DHT22;3619;53.784;10.440;2023-07-22T12:33:49;20.30;99.90
7155;DHT22;3619;53.784;10.440;2023-07-22T12:36:16;20.30;99.90
7155;DHT22;3619;53.784;10.440;2023-07-22T12:38:43;20.10;99.90
7155;DHT22;3619;53.784;10.440;2023-07-22T12:41:12;19.80;99.90
7155;DHT22;3619;53.784;10.440;2023-07-22T12:43:40;19.70;99.90
7155;DHT22;3619;53.784;10.440;2023-07-22T12:46:06;19.60;99.90
7155;DHT22;3619;53.784;10.440;2023-07-22T12:48:33;19.50;99.90
7155;DHT22;3619;53.784;10.440;2023-07-22T12:51:00;19.40;99.90
7155;DHT22;3619;53.784;10.440;2023-07-22T12:53:28;19.40;99.90
7155;DHT22;3619;53.784;10.440;2023-07-22T12:55:55;19.30;99.90
7155;DHT22;3619;53.784;10.440;2023-07-22T12:58:21;19.20;99.90
7155;DHT22;3619;53.784;10.440;2023-07-22T13:00:50;19.20;99.90
7155;DHT22;3619;53.784;10.440;2023-07-22T13:03:17;19.10;99.90
7155;DHT22;3619;53.784;10.440;2023-07-22T13:05:44;19.10;99.90
7155;DHT22;3619;53.784;10.440;2023-07-22T13:08:11;19.20;99.90
7155;DHT22;3619;53.784;10.440;2023-07-22T13:10:37;19.30;99.90
7155;DHT22;3619;53.784;10.440;2023-07-22T13:13:09;19.30;99.90
7155;DHT22;3619;53.784;10.440;2023-07-22T13:15:36;19.20;99.90
7155;DHT22;3619;53.784;10.440;2023-07-22T13:18:04;19.30;99.90
7155;DHT22;3619;53.784;10.440;2023-07-22T13:20:33;19.30;99.90
7155;DHT22;3619;53.784;10.440;2023-07-22T13:23:00;19.30;99.90
7155;DHT22;3619;53.784;10.440;2023-07-22T13:25:26;19.30;99.90
7155;DHT22;3619;53.784;10.440;2023-07-22T13:27:53;19.10;99.90
7155;DHT22;3619;53.784;10.440;2023-07-22T13:30:20;18.80;99.90
7155;DHT22;3619;53.784;10.440;2023-07-22T13:32:47;18.70;99.90
7155;DHT22;3619;53.784;10.440;2023-07-22T13:35:15;18.30;99.90
7155;DHT22;3619;53.784;10.440;2023-07-22T13:37:47;17.60;99.90
7155;DHT22;3619;53.784;10.440;2023-07-22T13:40:14;17.00;99.90
7155;DHT22;3619;53.784;10.440;2023-07-22T13:42:40;16.70;99.90
7155;DHT22;3619;53.784;10.440;2023-07-22T13:45:09;16.40;99.90
7155;DHT22;3619;53.784;10.440;2023-07-22T13:47:36;16.20;99.90
7155;DHT22;3619;53.784;10.440;2023-07-22T13:50:03;16.10;99.90
7155;DHT22;3619;53.784;10.440;2023-07-22T13:52:31;16.00;99.90
7155;DHT22;3619;53.784;10.440;2023-07-22T13:54:58;16.00;99.90
7155;DHT22;3619;53.784;10.440;2023-07-22T13:57:24;16.00;99.90
7155;DHT22;3619;53.784;10.440;2023-07-22T13:59:51;16.10;99.90
7155;DHT22;3619;53.784;10.440;2023-07-22T14:02:18;16.30;99.90
7155;DHT22;3619;53.784;10.440;2023-07-22T14:04:45;16.50;99.90
7155;DHT22;3619;53.784;10.440;2023-07-22T14:07:12;16.50;99.90
7155;DHT22;3619;53.784;10.440;2023-07-22T14:09:42;16.60;99.90
7155;DHT22;3619;53.784;10.440;2023-07-22T14:12:10;16.80;99.90
7155;DHT22;3619;53.784;10.440;2023-07-22T14:14:37;17.00;99.90
7155;DHT22;3619;53.784;10.440;2023-07-22T14:17:04;17.20;99.90
7155;DHT22;3619;53.784;10.440;2023-07-22T14:19:31;17.40;99.90
7155;DHT22;3619;53.784;10.440;2023-07-22T14:21:58;17.50;99.90
7155;DHT22;3619;53.784;10.440;2023-07-22T14:24:25;17.40;99.90
7155;DHT22;3619;53.784;10.440;2023-07-22T14:26:54;17.40;99.90
7155;DHT22;3619;53.784;10.440;2023-07-22T14:29:22;17.20;99.90
7155;DHT22;3619;53.784;10.440;2023-07-22T14:31:51;17.20;99.90
7155;DHT22;3619;53.784;10.440;2023-07-22T14:34:17;17.20;99.90
7155;DHT22;3619;53.784;10.440;2023-07-22T14:36:44;17.20;99.90
7155;DHT22;3619;53.784;10.440;2023-07-22T14:39:11;16.90;99.90
7155;DHT22;3619;53.784;10.440;2023-07-22T14:41:40;17.00;99.90
7155;DHT22;3619;53.784;10.440;2023-07-22T14:44:09;17.00;99.90
7155;DHT22;3619;53.784;10.440;2023-07-22T14:46:36;16.90;99.90
7155;DHT22;3619;53.784;10.440;2023-07-22T14:49:04;16.90;99.90
7155;DHT22;3619;53.784;10.440;2023-07-22T14:51:34;16.90;99.90
7155;DHT22;3619;53.784;10.440;2023-07-22T14:54:01;17.10;99.90
7155;DHT22;3619;53.784;10.440;2023-07-22T14:56:28;17.10;99.90
7155;DHT22;3619;53.784;10.440;2023-07-22T14:58:55;17.00;99.90
7155;DHT22;3619;53.784;10.440;2023-07-22T15:01:36;16.90;99.90
7155;DHT22;3619;53.784;10.440;2023-07-22T15:04:04;17.00;99.90
7155;DHT22;3619;53.784;10.440;2023-07-22T15:06:30;16.90;99.90
7155;DHT22;3619;53.784;10.440;2023-07-22T15:09:00;17.00;99.90
7155;DHT22;3619;53.784;10.440;2023-07-22T15:11:27;17.00;99.90
7155;DHT22;3619;53.784;10.440;2023-07-22T15:13:54;17.00;99.90
7155;DHT22;3619;53.784;10.440;2023-07-22T15:16:20;17.10;99.90
7155;DHT22;3619;53.784;10.440;2023-07-22T15:18:49;17.00;99.90
7155;DHT22;3619;53.784;10.440;2023-07-22T15:21:16;17.00;99.90
7155;DHT22;3619;53.784;10.440;2023-07-22T15:23:42;17.00;99.90
7155;DHT22;3619;53.784;10.440;2023-07-22T15:26:09;17.00;99.90
7155;DHT22;3619;53.784;10.440;2023-07-22T15:28:36;17.00;99.90
7155;DHT22;3619;53.784;10.440;2023-07-22T15:31:03;17.10;99.90
7155;DHT22;3619;53.784;10.440;2023-07-22T15:33:29;17.00;99.90
7155;DHT22;3619;53.784;10.440;2023-07-22T15:35:58;17.00;99.90
7155;DHT22;3619;53.784;10.440;2023-07-22T15:38:25;16.90;99.90
7155;DHT22;3619;53.784;10.440;2023-07-22T15:40:52;16.90;99.90
7155;DHT22;3619;53.784;10.440;2023-07-22T15:43:19;16.90;99.90
7155;DHT22;3619;53.784;10.440;2023-07-22T15:45:46;16.80;99.90
7155;DHT22;3619;53.784;10.440;2023-07-22T15:48:13;16.80;99.90
7155;DHT22;3619;53.784;10.440;2023-07-22T15:50:39;16.70;99.90